Time;durP1;ratioP1;P1;durP2;ratioP2;P2;SDS_P1;SDS_P2;PMS_P1;PMS_P2;Temp;Humidity;BMP_temperature;BMP_pressure;BME280_temperature;BME280_humidity;BME280_pressure;Samples;Min_cycle;Max_cycle;Signal;HPM_P1;HPM_P2
2021/11/20 00:00:28;;;;;;;;;19.25;17.25;;;;;;;;5035786;28;47011;-74
2021/11/20 00:02:54;;;;;;;;;14.75;13.25;;;;;;;;5036748;28;46025;-74
2021/11/20 00:05:21;;;;;;;;;19.00;17.25;;;;;;;;5037093;28;45216;-74
2021/11/20 00:07:47;;;;;;;;;17.75;12.25;;;;;;;;5036234;28;45588;-74
2021/11/20 00:10:13;;;;;;;;;10.50;10.50;;;;;;;;5035630;28;45395;-73
2021/11/20 00:12:41;;;;;;;;;13.00;11.50;;;;;;;;5035954;28;45451;-76
2021/11/20 00:15:08;;;;;;;;;15.50;13.00;;;;;;;;5035798;28;45286;-74
2021/11/20 00:17:33;;;;;;;;;13.00;13.00;;;;;;;;5018452;28;45614;-75
2021/11/20 00:19:58;;;;;;;;;15.50;10.75;;;;;;;;5035966;28;45343;-75
2021/11/20 00:22:31;;;;;;;;;14.50;10.25;;;;;;;;5036008;28;45407;-76
2021/11/20 00:24:59;;;;;;;;;8.75;8.00;;;;;;;;5036053;28;45226;-76
2021/11/20 00:27:27;;;;;;;;;8.75;7.75;;;;;;;;5036335;28;45299;-76
2021/11/20 00:30:02;;;;;;;;;8.50;7.25;;;;;;;;5035727;28;46260;-76
2021/11/20 00:32:29;;;;;;;;;10.75;10.00;;;;;;;;5034998;28;45272;-76
2021/11/20 00:34:56;;;;;;;;;13.00;7.75;;;;;;;;5036252;28;45453;-75
2021/11/20 00:37:22;;;;;;;;;7.75;6.50;;;;;;;;5035334;28;45579;-75
2021/11/20 00:39:48;;;;;;;;;7.50;7.50;;;;;;;;5035121;28;45709;-75
2021/11/20 00:42:13;;;;;;;;;10.25;7.25;;;;;;;;5035691;28;45518;-75
2021/11/20 00:44:38;;;;;;;;;8.75;6.75;;;;;;;;5035801;28;45764;-75
2021/11/20 00:47:04;;;;;;;;;10.25;9.75;;;;;;;;5035251;28;45873;-76
2021/11/20 00:49:30;;;;;;;;;9.00;7.00;;;;;;;;5035292;28;45478;-77
2021/11/20 00:51:55;;;;;;;;;8.25;7.50;;;;;;;;5034738;28;45358;-76
2021/11/20 00:54:20;;;;;;;;;10.25;10.25;;;;;;;;5035330;28;45585;-76
2021/11/20 00:56:46;;;;;;;;;11.75;10.00;;;;;;;;5035283;28;45490;-76
2021/11/20 00:59:11;;;;;;;;;10.25;9.00;;;;;;;;5034506;28;45851;-76
2021/11/20 01:01:39;;;;;;;;;14.00;10.75;;;;;;;;5035173;28;45311;-76
2021/11/20 01:04:05;;;;;;;;;10.25;10.00;;;;;;;;5035623;28;45489;-76
2021/11/20 01:06:31;;;;;;;;;9.25;9.00;;;;;;;;5035600;28;45302;-76
2021/11/20 01:08:56;;;;;;;;;9.50;8.25;;;;;;;;5035097;28;45301;-75
2021/11/20 01:11:24;;;;;;;;;10.50;10.50;;;;;;;;5035885;28;45419;-75
2021/11/20 01:13:50;;;;;;;;;8.25;7.25;;;;;;;;5035428;28;45608;-76
2021/11/20 01:16:16;;;;;;;;;9.00;9.00;;;;;;;;5035677;28;45427;-76
2021/11/20 01:18:42;;;;;;;;;13.50;12.75;;;;;;;;5035362;28;46244;-75
2021/11/20 01:21:08;;;;;;;;;8.25;8.25;;;;;;;;5035460;28;45785;-74
2021/11/20 01:23:34;;;;;;;;;13.00;13.00;;;;;;;;5036473;28;45394;-74
2021/11/20 01:25:59;;;;;;;;;11.25;9.75;;;;;;;;5035545;28;45532;-74
2021/11/20 01:28:26;;;;;;;;;15.50;13.25;;;;;;;;5034700;28;46251;-74
2021/11/20 01:30:51;;;;;;;;;11.75;9.75;;;;;;;;5035212;28;45430;-74
2021/11/20 01:33:17;;;;;;;;;12.00;12.00;;;;;;;;5035698;28;45487;-75
2021/11/20 01:35:43;;;;;;;;;12.00;11.25;;;;;;;;5036013;28;45380;-76
2021/11/20 01:38:08;;;;;;;;;9.50;9.50;;;;;;;;5035586;28;45604;-74
2021/11/20 01:40:36;;;;;;;;;10.50;8.75;;;;;;;;5035460;28;45549;-75
2021/11/20 01:43:02;;;;;;;;;16.00;12.50;;;;;;;;5035287;28;45309;-75
2021/11/20 01:45:30;;;;;;;;;15.00;10.75;;;;;;;;5035464;28;45334;-74
2021/11/20 01:48:14;;;;;;;;;16.00;15.75;;;;;;;;5035028;28;46598;-75
2021/11/20 01:50:41;;;;;;;;;9.00;9.00;;;;;;;;5035977;28;45237;-75
2021/11/20 01:53:10;;;;;;;;;13.75;12.50;;;;;;;;5035199;28;45296;-75
2021/11/20 01:55:38;;;;;;;;;9.75;7.75;;;;;;;;5035346;28;45433;-76
2021/11/20 01:58:03;;;;;;;;;13.00;11.50;;;;;;;;5016592;28;46059;-76
2021/11/20 02:00:29;;;;;;;;;11.25;9.75;;;;;;;;5034959;28;45484;-77
2021/11/20 02:03:14;;;;;;;;;15.75;13.75;;;;;;;;5035253;28;46146;-77
2021/11/20 02:05:58;;;;;;;;;13.75;9.50;;;;;;;;5031580;28;45503;-76
2021/11/20 02:08:31;;;;;;;;;12.75;11.25;;;;;;;;5033856;28;47158;-76
2021/11/20 02:11:02;;;;;;;;;12.00;11.00;;;;;;;;5035682;28;45555;-77
2021/11/20 02:13:29;;;;;;;;;16.25;12.50;;;;;;;;5037357;28;45522;-78
2021/11/20 02:15:59;;;;;;;;;9.75;8.75;;;;;;;;5037026;28;45410;-76
2021/11/20 02:18:26;;;;;;;;;13.00;11.25;;;;;;;;5036319;28;47244;-76
2021/11/20 02:20:58;;;;;;;;;19.75;12.50;;;;;;;;5035749;28;45416;-77
2021/11/20 02:23:24;;;;;;;;;15.50;15.00;;;;;;;;5035733;28;45380;-77
2021/11/20 02:25:49;;;;;;;;;18.60;13.00;;;;;;;;5034611;28;45427;-77
2021/11/20 02:28:15;;;;;;;;;14.75;14.50;;;;;;;;5039214;28;45900;-77
2021/11/20 02:30:41;;;;;;;;;13.00;13.00;;;;;;;;5043013;28;45277;-77
2021/11/20 02:33:08;;;;;;;;;11.00;9.75;;;;;;;;5035165;28;45261;-77
2021/11/20 02:35:38;;;;;;;;;12.50;12.50;;;;;;;;5035786;28;45466;-77
2021/11/20 02:38:05;;;;;;;;;13.75;11.00;;;;;;;;5036424;28;47255;-76
2021/11/20 02:40:30;;;;;;;;;14.25;13.25;;;;;;;;5034819;28;45565;-77
2021/11/20 02:42:56;;;;;;;;;15.50;14.25;;;;;;;;5016716;28;45435;-77
2021/11/20 02:45:34;;;;;;;;;16.75;14.00;;;;;;;;5034788;28;45505;-77
2021/11/20 02:47:59;;;;;;;;;17.25;13.50;;;;;;;;5034674;28;46056;-76
2021/11/20 02:50:34;;;;;;;;;15.25;13.00;;;;;;;;5035170;28;45461;-76
2021/11/20 02:53:00;;;;;;;;;18.25;14.00;;;;;;;;5034486;28;45731;-76
2021/11/20 02:55:25;;;;;;;;;19.25;13.00;;;;;;;;5034165;28;45594;-76
2021/11/20 02:57:51;;;;;;;;;17.50;14.50;;;;;;;;5034599;28;47106;-77
2021/11/20 03:00:16;;;;;;;;;15.50;11.25;;;;;;;;5034509;28;45315;-76
2021/11/20 03:02:42;;;;;;;;;17.75;14.00;;;;;;;;5035033;28;45381;-76
2021/11/20 03:05:08;;;;;;;;;11.75;11.75;;;;;;;;5034639;28;45346;-76
2021/11/20 03:07:33;;;;;;;;;15.25;12.75;;;;;;;;5034023;28;45472;-77
2021/11/20 03:09:58;;;;;;;;;16.50;14.00;;;;;;;;5033852;28;45815;-77
2021/11/20 03:12:24;;;;;;;;;15.50;14.50;;;;;;;;5034202;28;45612;-77
2021/11/20 03:14:50;;;;;;;;;20.25;16.25;;;;;;;;5034576;28;45284;-76
2021/11/20 03:17:15;;;;;;;;;18.00;15.00;;;;;;;;5034510;28;46332;-78
2021/11/20 03:19:45;;;;;;;;;13.75;13.75;;;;;;;;5034349;28;45288;-78
2021/11/20 03:22:21;;;;;;;;;13.00;13.00;;;;;;;;5034487;28;45398;-76
2021/11/20 03:24:47;;;;;;;;;16.00;13.25;;;;;;;;5033564;28;45293;-78
2021/11/20 03:27:13;;;;;;;;;15.00;12.25;;;;;;;;5034061;28;46841;-77
2021/11/20 03:29:38;;;;;;;;;13.75;10.00;;;;;;;;5030365;28;45348;-77
2021/11/20 03:32:04;;;;;;;;;14.75;12.75;;;;;;;;5035122;28;45479;-77
2021/11/20 03:34:30;;;;;;;;;15.50;11.25;;;;;;;;5037169;28;45475;-77
2021/11/20 03:36:56;;;;;;;;;16.75;15.75;;;;;;;;5036724;28;46557;-77
2021/11/20 03:39:21;;;;;;;;;16.00;13.25;;;;;;;;5037043;28;45409;-77
2021/11/20 03:41:47;;;;;;;;;15.75;14.00;;;;;;;;5037966;28;45690;-76
2021/11/20 03:44:12;;;;;;;;;16.00;14.25;;;;;;;;5038082;28;45624;-77
2021/11/20 03:46:38;;;;;;;;;10.75;10.75;;;;;;;;5037229;28;45402;-76
2021/11/20 03:49:04;;;;;;;;;12.50;12.50;;;;;;;;5037159;28;45507;-76
2021/11/20 03:51:29;;;;;;;;;14.75;13.25;;;;;;;;5036831;28;45454;-77
2021/11/20 03:53:55;;;;;;;;;14.75;12.00;;;;;;;;5036853;28;45347;-77
2021/11/20 03:56:21;;;;;;;;;14.00;13.00;;;;;;;;5037566;28;46181;-76
2021/11/20 03:58:46;;;;;;;;;13.50;12.75;;;;;;;;5036664;28;45340;-76
2021/11/20 04:01:13;;;;;;;;;15.25;12.00;;;;;;;;5036801;28;45390;-77
2021/11/20 04:03:39;;;;;;;;;15.00;12.50;;;;;;;;5037048;28;45433;-76
2021/11/20 04:06:10;;;;;;;;;13.50;11.50;;;;;;;;5037217;28;46205;-76
2021/11/20 04:08:35;;;;;;;;;10.50;9.00;;;;;;;;5036496;28;45581;-77
2021/11/20 04:11:00;;;;;;;;;13.00;10.00;;;;;;;;5036103;28;45303;-77
2021/11/20 04:13:26;;;;;;;;;12.75;11.50;;;;;;;;5036386;28;45439;-76
2021/11/20 04:15:51;;;;;;;;;16.50;15.50;;;;;;;;5036210;28;46253;-76
2021/11/20 04:18:17;;;;;;;;;18.25;14.25;;;;;;;;5036900;28;45602;-77
2021/11/20 04:20:42;;;;;;;;;12.00;10.50;;;;;;;;5037195;28;45359;-76
2021/11/20 04:23:07;;;;;;;;;14.25;13.00;;;;;;;;5036192;28;45507;-76
2021/11/20 04:25:34;;;;;;;;;12.25;10.00;;;;;;;;5035789;28;45914;-76
2021/11/20 04:27:59;;;;;;;;;18.25;11.50;;;;;;;;5036533;28;45396;-76
2021/11/20 04:30:25;;;;;;;;;10.75;10.75;;;;;;;;5036606;28;45325;-76
2021/11/20 04:32:51;;;;;;;;;9.00;9.00;;;;;;;;5037001;28;45290;-76
2021/11/20 04:35:17;;;;;;;;;14.25;12.00;;;;;;;;5037337;28;45376;-75
2021/11/20 04:37:42;;;;;;;;;7.25;5.50;;;;;;;;5036410;28;45378;-76
2021/11/20 04:40:08;;;;;;;;;7.50;5.50;;;;;;;;5036774;28;45281;-76
2021/11/20 04:42:33;;;;;;;;;6.00;6.00;;;;;;;;5036834;28;45274;-76
2021/11/20 04:44:59;;;;;;;;;5.25;5.25;;;;;;;;5035917;28;46309;-76
2021/11/20 04:47:24;;;;;;;;;4.75;4.75;;;;;;;;5037200;28;45382;-76
2021/11/20 04:49:49;;;;;;;;;4.75;4.00;;;;;;;;5036311;28;45531;-76
2021/11/20 04:52:15;;;;;;;;;1.00;1.00;;;;;;;;5035696;28;45370;-76
2021/11/20 04:54:41;;;;;;;;;1.50;1.50;;;;;;;;5035944;28;45403;-76
2021/11/20 04:57:06;;;;;;;;;3.50;3.50;;;;;;;;5035945;28;45272;-76
2021/11/20 04:59:31;;;;;;;;;5.00;5.00;;;;;;;;5036728;28;45379;-76
2021/11/20 05:01:57;;;;;;;;;10.75;7.00;;;;;;;;5036156;28;45348;-76
2021/11/20 05:04:22;;;;;;;;;8.50;8.50;;;;;;;;5035709;28;46300;-76
2021/11/20 05:06:48;;;;;;;;;5.25;5.25;;;;;;;;5017587;28;45481;-76
2021/11/20 05:09:13;;;;;;;;;6.75;5.75;;;;;;;;5035398;28;45437;-76
2021/11/20 05:11:38;;;;;;;;;10.25;8.75;;;;;;;;5016335;28;45325;-77
2021/11/20 05:14:04;;;;;;;;;10.00;7.50;;;;;;;;5035179;28;45432;-77
2021/11/20 05:16:29;;;;;;;;;8.00;8.00;;;;;;;;5035387;28;45479;-77
2021/11/20 05:18:54;;;;;;;;;6.50;6.50;;;;;;;;5036080;28;45380;-77
2021/11/20 05:21:20;;;;;;;;;6.75;6.25;;;;;;;;5035291;28;45445;-77
2021/11/20 05:23:46;;;;;;;;;8.50;6.25;;;;;;;;5035396;28;45364;-77
2021/11/20 05:26:12;;;;;;;;;4.00;4.00;;;;;;;;5035534;28;45347;-77
2021/11/20 05:28:38;;;;;;;;;7.25;4.50;;;;;;;;5036855;28;45541;-77
2021/11/20 05:31:03;;;;;;;;;5.25;5.25;;;;;;;;5034747;28;45444;-77
2021/11/20 05:33:42;;;;;;;;;3.25;3.25;;;;;;;;5035141;28;45432;-77
2021/11/20 05:36:08;;;;;;;;;5.00;3.50;;;;;;;;5037070;28;45385;-76
2021/11/20 05:38:33;;;;;;;;;5.25;5.25;;;;;;;;5036899;28;45324;-77
2021/11/20 05:40:59;;;;;;;;;5.00;4.00;;;;;;;;5034892;28;45509;-76
2021/11/20 05:43:24;;;;;;;;;5.00;4.00;;;;;;;;5017902;28;47824;-77
2021/11/20 05:45:52;;;;;;;;;3.00;3.00;;;;;;;;5037238;28;45646;-77
2021/11/20 05:48:17;;;;;;;;;3.00;3.00;;;;;;;;5037929;28;45232;-77
2021/11/20 05:50:43;;;;;;;;;7.75;7.50;;;;;;;;5036611;28;45209;-77
2021/11/20 05:53:10;;;;;;;;;5.00;5.00;;;;;;;;5040292;28;45293;-77
2021/11/20 05:55:35;;;;;;;;;6.75;5.00;;;;;;;;5037030;28;45539;-77
2021/11/20 05:58:01;;;;;;;;;5.75;4.25;;;;;;;;5038073;28;45290;-77
2021/11/20 06:00:28;;;;;;;;;6.50;4.75;;;;;;;;5037061;28;45333;-77
2021/11/20 06:02:54;;;;;;;;;3.00;3.00;;;;;;;;5035427;28;47156;-77
2021/11/20 06:05:20;;;;;;;;;5.00;4.00;;;;;;;;5017451;28;45379;-76
2021/11/20 06:07:45;;;;;;;;;4.50;4.50;;;;;;;;5035085;28;45514;-77
2021/11/20 06:10:11;;;;;;;;;7.25;5.75;;;;;;;;5035091;28;45413;-76
2021/11/20 06:12:36;;;;;;;;;4.00;3.00;;;;;;;;5037455;28;46123;-77
2021/11/20 06:15:01;;;;;;;;;6.00;3.25;;;;;;;;5034472;28;45522;-74
2021/11/20 06:17:27;;;;;;;;;4.75;4.75;;;;;;;;5034940;28;45303;-74
2021/11/20 06:19:53;;;;;;;;;4.00;4.00;;;;;;;;5035861;28;45487;-74
2021/11/20 06:22:20;;;;;;;;;10.25;8.50;;;;;;;;5034531;28;45581;-77
2021/11/20 06:24:46;;;;;;;;;10.00;6.00;;;;;;;;5015490;28;45381;-77
2021/11/20 06:27:11;;;;;;;;;6.25;4.00;;;;;;;;5016638;28;45416;-77
2021/11/20 06:29:36;;;;;;;;;4.25;3.25;;;;;;;;5035247;28;45399;-76
2021/11/20 06:32:02;;;;;;;;;5.25;4.50;;;;;;;;5034446;28;47629;-75
2021/11/20 06:34:27;;;;;;;;;5.25;4.50;;;;;;;;5033917;28;45391;-76
2021/11/20 06:36:52;;;;;;;;;4.00;3.25;;;;;;;;5034234;28;45482;-77
2021/11/20 06:39:18;;;;;;;;;6.00;6.00;;;;;;;;5033691;28;45561;-76
2021/11/20 06:41:43;;;;;;;;;5.50;5.50;;;;;;;;5033928;28;45344;-77
2021/11/20 06:44:08;;;;;;;;;3.75;3.00;;;;;;;;5033511;28;45419;-77
2021/11/20 06:46:34;;;;;;;;;4.00;4.00;;;;;;;;5033131;28;45383;-77
2021/11/20 06:48:59;;;;;;;;;7.25;5.50;;;;;;;;5034482;28;45402;-78
2021/11/20 06:51:25;;;;;;;;;7.25;5.50;;;;;;;;5033402;28;46120;-77
2021/11/20 06:53:50;;;;;;;;;9.50;8.50;;;;;;;;5034427;28;45474;-77
2021/11/20 06:56:27;;;;;;;;;8.25;6.25;;;;;;;;5034634;28;45289;-77
2021/11/20 07:01:19;;;;;;;;;6.75;5.25;;;;;;;;5032871;28;45559;-77
2021/11/20 07:03:53;;;;;;;;;9.00;6.75;;;;;;;;5033812;28;45510;-78
2021/11/20 07:06:21;;;;;;;;;9.25;8.50;;;;;;;;5018330;28;45372;-78
2021/11/20 07:08:47;;;;;;;;;6.50;6.00;;;;;;;;5037466;28;45461;-78
2021/11/20 07:11:13;;;;;;;;;9.00;8.00;;;;;;;;5037099;28;46072;-78
2021/11/20 07:13:38;;;;;;;;;11.25;6.75;;;;;;;;5036657;28;45324;-77
2021/11/20 07:16:05;;;;;;;;;9.00;7.00;;;;;;;;5037091;28;45419;-78
2021/11/20 07:18:30;;;;;;;;;8.50;8.50;;;;;;;;5037121;28;45352;-78
2021/11/20 07:20:55;;;;;;;;;11.25;7.50;;;;;;;;5036519;28;45391;-78
2021/11/20 07:23:21;;;;;;;;;9.25;6.75;;;;;;;;5037676;28;45458;-78
2021/11/20 07:25:46;;;;;;;;;6.75;6.75;;;;;;;;5036803;28;45477;-78
2021/11/20 07:28:11;;;;;;;;;7.50;7.50;;;;;;;;5036958;28;45502;-78
2021/11/20 07:30:38;;;;;;;;;8.25;8.00;;;;;;;;5035680;28;46313;-77
2021/11/20 07:33:03;;;;;;;;;13.25;10.50;;;;;;;;5036305;28;45471;-77
2021/11/20 07:35:30;;;;;;;;;12.50;9.50;;;;;;;;5019631;28;45329;-77
2021/11/20 07:37:56;;;;;;;;;9.75;8.00;;;;;;;;5036142;28;45523;-78
2021/11/20 07:40:23;;;;;;;;;6.50;5.25;;;;;;;;5036512;28;46988;-77
2021/11/20 07:42:48;;;;;;;;;8.50;7.00;;;;;;;;5036990;28;46805;-77
2021/11/20 07:45:13;;;;;;;;;5.25;5.00;;;;;;;;5036040;28;45328;-77
2021/11/20 07:47:38;;;;;;;;;11.00;7.00;;;;;;;;5037128;28;45261;-78
2021/11/20 07:50:04;;;;;;;;;8.00;6.00;;;;;;;;5035540;28;46039;-77
2021/11/20 07:52:30;;;;;;;;;10.25;8.25;;;;;;;;5035596;28;45756;-77
2021/11/20 07:54:55;;;;;;;;;10.75;10.00;;;;;;;;5035899;28;45387;-77
2021/11/20 07:57:20;;;;;;;;;6.50;6.50;;;;;;;;5035990;28;45480;-77
2021/11/20 07:59:45;;;;;;;;;8.50;7.50;;;;;;;;5035798;28;47606;-77
2021/11/20 08:02:10;;;;;;;;;11.50;8.50;;;;;;;;5036409;28;45386;-77
2021/11/20 08:04:38;;;;;;;;;10.50;9.25;;;;;;;;5037207;28;45439;-76
2021/11/20 08:07:04;;;;;;;;;13.75;10.00;;;;;;;;5036167;28;45534;-76
2021/11/20 08:09:29;;;;;;;;;7.75;6.50;;;;;;;;5035903;28;46284;-77
2021/11/20 08:11:54;;;;;;;;;11.00;9.50;;;;;;;;5038100;28;45338;-77
2021/11/20 08:14:21;;;;;;;;;10.00;6.50;;;;;;;;5022109;28;45304;-76
2021/11/20 08:16:46;;;;;;;;;9.00;9.00;;;;;;;;5042452;28;47304;-76
2021/11/20 08:19:11;;;;;;;;;15.00;10.00;;;;;;;;5038480;28;46667;-76
2021/11/20 08:21:37;;;;;;;;;7.75;7.75;;;;;;;;5036107;28;45546;-77
2021/11/20 08:24:02;;;;;;;;;8.75;8.75;;;;;;;;5036867;28;45412;-77
2021/11/20 08:26:35;;;;;;;;;7.75;7.75;;;;;;;;5038150;28;45474;-77
2021/11/20 08:29:01;;;;;;;;;6.25;6.25;;;;;;;;5036106;28;47102;-77
2021/11/20 08:31:28;;;;;;;;;8.50;8.00;;;;;;;;5035759;28;45381;-78
2021/11/20 08:33:53;;;;;;;;;12.00;9.50;;;;;;;;5036459;28;45456;-79
2021/11/20 08:36:18;;;;;;;;;13.00;11.75;;;;;;;;5036189;28;45349;-78
2021/11/20 08:38:44;;;;;;;;;13.25;12.75;;;;;;;;5036065;28;46336;-77
2021/11/20 08:41:09;;;;;;;;;22.25;19.75;;;;;;;;5034839;28;45523;-77
2021/11/20 08:43:35;;;;;;;;;14.50;12.00;;;;;;;;5035098;28;45502;-76
2021/11/20 08:46:01;;;;;;;;;18.25;15.00;;;;;;;;5034995;28;45424;-77
2021/11/20 08:48:26;;;;;;;;;16.25;10.50;;;;;;;;5035401;28;46096;-78
2021/11/20 08:51:00;;;;;;;;;18.25;14.00;;;;;;;;5035589;28;45352;-78
2021/11/20 08:53:25;;;;;;;;;17.00;14.50;;;;;;;;5034513;28;45461;-78
2021/11/20 08:55:52;;;;;;;;;13.00;10.50;;;;;;;;5035681;28;45515;-78
2021/11/20 08:58:17;;;;;;;;;11.50;10.75;;;;;;;;5035342;28;47041;-78
2021/11/20 09:00:50;;;;;;;;;16.50;13.25;;;;;;;;5035265;28;45434;-78
2021/11/20 09:03:16;;;;;;;;;13.00;9.50;;;;;;;;5019775;28;45532;-79
2021/11/20 09:05:41;;;;;;;;;17.00;14.00;;;;;;;;5036095;28;45293;-78
2021/11/20 09:08:13;;;;;;;;;14.25;12.75;;;;;;;;5034967;28;46366;-77
2021/11/20 09:10:44;;;;;;;;;5.50;5.50;;;;;;;;5034925;28;45368;-77
2021/11/20 09:13:12;;;;;;;;;12.75;12.25;;;;;;;;5034319;28;45493;-78
2021/11/20 09:15:43;;;;;;;;;13.00;11.75;;;;;;;;5035111;28;45481;-78
2021/11/20 09:18:09;;;;;;;;;15.75;12.25;;;;;;;;5034523;28;46130;-77
2021/11/20 09:20:34;;;;;;;;;15.25;10.75;;;;;;;;5035395;28;45300;-78
2021/11/20 09:22:59;;;;;;;;;19.25;14.50;;;;;;;;5033758;28;45501;-79
2021/11/20 09:25:25;;;;;;;;;13.25;12.00;;;;;;;;5034696;28;47894;-78
2021/11/20 09:27:50;;;;;;;;;15.25;12.00;;;;;;;;5034000;28;46179;-79
2021/11/20 09:30:20;;;;;;;;;15.25;13.25;;;;;;;;5034131;28;45553;-78
2021/11/20 09:32:46;;;;;;;;;17.75;13.50;;;;;;;;5035166;28;45221;-78
2021/11/20 09:35:11;;;;;;;;;19.25;15.50;;;;;;;;5034391;28;45502;-79
2021/11/20 09:37:37;;;;;;;;;18.50;17.50;;;;;;;;5034103;28;45374;-78
2021/11/20 09:40:04;;;;;;;;;19.50;16.50;;;;;;;;5034483;28;45284;-76
2021/11/20 09:42:37;;;;;;;;;17.50;13.50;;;;;;;;5034798;28;45497;-80
2021/11/20 09:45:11;;;;;;;;;24.75;21.50;;;;;;;;5034770;28;45236;-78
2021/11/20 09:47:38;;;;;;;;;14.50;13.00;;;;;;;;5034823;28;46238;-79
2021/11/20 09:50:03;;;;;;;;;16.25;14.25;;;;;;;;5034376;28;45493;-79
2021/11/20 09:52:29;;;;;;;;;13.25;11.50;;;;;;;;5033624;28;45505;-79
2021/11/20 09:54:54;;;;;;;;;12.25;12.25;;;;;;;;5033364;28;45552;-77
2021/11/20 09:57:22;;;;;;;;;10.50;8.50;;;;;;;;5034279;28;46051;-78
2021/11/20 09:59:53;;;;;;;;;18.75;16.50;;;;;;;;5033798;28;45443;-79
2021/11/20 10:02:19;;;;;;;;;27.50;22.00;;;;;;;;5033844;28;45276;-78
2021/11/20 10:04:47;;;;;;;;;13.75;12.50;;;;;;;;5033778;28;45317;-78
2021/11/20 10:07:35;;;;;;;;;12.50;12.00;;;;;;;;5033270;28;46490;-79
2021/11/20 10:10:05;;;;;;;;;15.00;10.50;;;;;;;;5024743;28;45556;-78
2021/11/20 10:12:41;;;;;;;;;10.25;10.25;;;;;;;;5034125;28;45542;-78
2021/11/20 10:15:15;;;;;;;;;18.75;17.75;;;;;;;;5034066;28;46509;-78
2021/11/20 10:18:00;;;;;;;;;12.75;12.75;;;;;;;;5030561;28;46183;-79
2021/11/20 10:20:32;;;;;;;;;16.50;15.00;;;;;;;;5031882;28;45682;-79
2021/11/20 10:23:02;;;;;;;;;15.75;15.75;;;;;;;;5033709;28;45427;-79
2021/11/20 10:25:45;;;;;;;;;18.75;18.75;;;;;;;;5033299;28;45485;-78
2021/11/20 10:28:17;;;;;;;;;15.50;14.00;;;;;;;;5033004;28;45628;-78
2021/11/20 10:31:01;;;;;;;;;22.00;18.50;;;;;;;;5032762;28;45432;-78
2021/11/20 10:33:35;;;;;;;;;21.00;17.50;;;;;;;;5019215;28;45567;-78
2021/11/20 10:36:08;;;;;;;;;17.00;14.25;;;;;;;;5033083;28;45547;-78
2021/11/20 10:38:36;;;;;;;;;16.50;13.75;;;;;;;;5032492;28;46286;-77
2021/11/20 10:41:06;;;;;;;;;20.75;18.50;;;;;;;;5031970;28;45471;-78
2021/11/20 10:43:42;;;;;;;;;23.75;22.75;;;;;;;;5032401;28;45408;-79
2021/11/20 10:46:23;;;;;;;;;27.50;22.75;;;;;;;;5032231;28;45529;-76
2021/11/20 10:49:07;;;;;;;;;21.00;16.50;;;;;;;;5032798;28;45572;-78
2021/11/20 10:51:37;;;;;;;;;20.25;17.75;;;;;;;;5034093;28;45591;-78
2021/11/20 10:54:21;;;;;;;;;11.50;11.50;;;;;;;;5014385;28;45572;-78
2021/11/20 10:56:56;;;;;;;;;15.25;12.75;;;;;;;;5029454;28;45250;-78
2021/11/20 10:59:43;;;;;;;;;21.25;17.75;;;;;;;;5032777;28;45538;-77
2021/11/20 11:02:20;;;;;;;;;16.50;13.75;;;;;;;;5033840;28;45505;-78
2021/11/20 11:05:04;;;;;;;;;20.00;20.00;;;;;;;;5033377;28;45340;-75
2021/11/20 11:07:36;;;;;;;;;11.50;11.50;;;;;;;;5025356;28;45857;-78
2021/11/20 11:10:08;;;;;;;;;12.00;11.00;;;;;;;;5032540;28;46310;-78
2021/11/20 11:12:49;;;;;;;;;14.50;13.50;;;;;;;;5031907;28;45388;-78
2021/11/20 11:15:24;;;;;;;;;25.50;21.25;;;;;;;;5016130;28;45335;-76
2021/11/20 11:17:58;;;;;;;;;25.50;22.50;;;;;;;;5028682;28;45539;-77
2021/11/20 11:20:30;;;;;;;;;25.75;19.50;;;;;;;;5031753;28;46381;-77
2021/11/20 11:23:05;;;;;;;;;28.00;28.00;;;;;;;;5031389;28;45213;-76
2021/11/20 11:25:32;;;;;;;;;19.00;18.25;;;;;;;;5031144;28;45469;-76
2021/11/20 11:28:12;;;;;;;;;24.00;22.00;;;;;;;;5031297;28;45410;-76
2021/11/20 11:30:50;;;;;;;;;21.00;18.75;;;;;;;;5031369;28;45379;-78
2021/11/20 11:33:16;;;;;;;;;15.25;14.25;;;;;;;;5014843;28;45616;-77
2021/11/20 11:35:52;;;;;;;;;13.00;13.00;;;;;;;;5031802;28;45426;-77
2021/11/20 11:38:30;;;;;;;;;23.75;19.50;;;;;;;;5030770;28;45478;-75
2021/11/20 11:41:14;;;;;;;;;23.75;20.25;;;;;;;;5031158;28;46263;-74
2021/11/20 11:43:48;;;;;;;;;23.25;18.25;;;;;;;;5031410;28;45597;-75
2021/11/20 11:46:22;;;;;;;;;20.75;17.25;;;;;;;;5031781;28;45467;-77
2021/11/20 11:49:02;;;;;;;;;19.00;14.50;;;;;;;;5031495;28;45697;-76
2021/11/20 11:51:46;;;;;;;;;17.75;15.25;;;;;;;;5031304;28;46307;-76
2021/11/20 11:54:11;;;;;;;;;18.25;15.00;;;;;;;;5034621;28;45480;-75
2021/11/20 11:56:42;;;;;;;;;15.75;13.50;;;;;;;;5035424;28;45332;-75
2021/11/20 11:59:26;;;;;;;;;15.00;12.75;;;;;;;;5034333;28;47282;-68
2021/11/20 12:01:51;;;;;;;;;13.50;13.50;;;;;;;;5035141;28;46842;-68
2021/11/20 12:04:18;;;;;;;;;13.50;13.50;;;;;;;;5034497;28;45531;-67
2021/11/20 12:06:46;;;;;;;;;17.00;15.50;;;;;;;;5034514;28;45531;-67
2021/11/20 12:09:26;;;;;;;;;20.00;20.00;;;;;;;;5034383;28;45430;-68
2021/11/20 12:11:52;;;;;;;;;16.00;14.25;;;;;;;;5031149;28;46508;-67
2021/11/20 12:14:33;;;;;;;;;26.25;19.25;;;;;;;;5034703;28;45358;-68
2021/11/20 12:17:04;;;;;;;;;17.75;16.50;;;;;;;;5034078;28;45241;-68
2021/11/20 12:19:30;;;;;;;;;21.50;19.25;;;;;;;;5033768;28;45319;-67
2021/11/20 12:22:01;;;;;;;;;17.75;14.50;;;;;;;;5033503;28;47040;-68
2021/11/20 12:24:32;;;;;;;;;24.00;18.75;;;;;;;;5033713;28;45467;-68
2021/11/20 12:27:03;;;;;;;;;20.00;16.50;;;;;;;;5033907;28;45387;-68
2021/11/20 12:29:31;;;;;;;;;26.50;22.00;;;;;;;;5032611;28;45397;-67
2021/11/20 12:32:01;;;;;;;;;33.75;25.25;;;;;;;;5033591;28;46339;-67
2021/11/20 12:34:39;;;;;;;;;22.50;20.25;;;;;;;;5033325;28;45459;-67
2021/11/20 12:37:08;;;;;;;;;18.25;16.00;;;;;;;;5033684;28;45594;-67
2021/11/20 12:39:47;;;;;;;;;20.00;18.75;;;;;;;;5034154;28;45302;-68
2021/11/20 12:42:25;;;;;;;;;28.25;23.00;;;;;;;;5016875;28;47820;-69
2021/11/20 12:44:55;;;;;;;;;24.00;20.50;;;;;;;;5013577;28;45394;-69
2021/11/20 12:47:39;;;;;;;;;17.25;16.25;;;;;;;;5034316;28;45595;-68
2021/11/20 12:50:04;;;;;;;;;19.00;16.50;;;;;;;;5014819;28;45540;-68
2021/11/20 12:52:33;;;;;;;;;22.25;19.75;;;;;;;;5032300;28;46118;-68
2021/11/20 12:55:17;;;;;;;;;22.75;20.00;;;;;;;;5032395;28;45453;-68
2021/11/20 12:57:45;;;;;;;;;26.50;24.00;;;;;;;;5033475;28;45340;-68
2021/11/20 13:00:13;;;;;;;;;22.00;20.75;;;;;;;;5033032;28;45603;-68
2021/11/20 13:02:56;;;;;;;;;20.00;17.00;;;;;;;;5033618;28;46509;-68
2021/11/20 13:05:30;;;;;;;;;23.00;21.00;;;;;;;;5033014;28;45363;-68
2021/11/20 13:07:59;;;;;;;;;28.25;26.00;;;;;;;;5032834;28;45459;-68
2021/11/20 13:10:24;;;;;;;;;26.00;25.25;;;;;;;;5032994;28;45553;-68
2021/11/20 13:12:52;;;;;;;;;24.00;19.50;;;;;;;;5033250;28;45428;-67
2021/11/20 13:15:31;;;;;;;;;27.75;25.00;;;;;;;;5033312;28;47813;-69
2021/11/20 13:18:03;;;;;;;;;37.00;30.75;;;;;;;;5033319;28;45336;-66
2021/11/20 13:20:28;;;;;;;;;23.75;19.75;;;;;;;;5031444;28;45489;-68
2021/11/20 13:23:20;;;;;;;;;23.75;18.75;;;;;;;;5032416;28;45450;-68
2021/11/20 13:25:54;;;;;;;;;17.25;16.00;;;;;;;;5030355;28;45572;-68
2021/11/20 13:28:19;;;;;;;;;24.75;19.00;;;;;;;;5032946;28;45249;-68
2021/11/20 13:30:45;;;;;;;;;25.75;24.50;;;;;;;;5032916;28;45280;-66
2021/11/20 13:33:11;;;;;;;;;26.50;19.75;;;;;;;;5014403;28;47980;-67
2021/11/20 13:35:37;;;;;;;;;18.25;17.50;;;;;;;;5032860;28;45439;-68
2021/11/20 13:38:04;;;;;;;;;21.50;19.75;;;;;;;;5032744;28;45722;-68
2021/11/20 13:40:32;;;;;;;;;23.50;21.50;;;;;;;;5032019;28;45439;-67
2021/11/20 13:42:58;;;;;;;;;29.25;26.00;;;;;;;;5031909;28;45560;-67
2021/11/20 13:45:23;;;;;;;;;21.25;21.00;;;;;;;;5032643;28;45340;-68
2021/11/20 13:47:49;;;;;;;;;27.50;24.25;;;;;;;;5033140;28;45422;-68
2021/11/20 13:50:15;;;;;;;;;47.50;37.00;;;;;;;;5032846;28;45357;-68
2021/11/20 13:52:40;;;;;;;;;41.75;34.25;;;;;;;;5032974;28;46306;-67
2021/11/20 13:55:06;;;;;;;;;21.75;20.50;;;;;;;;5033353;28;45508;-68
2021/11/20 13:57:32;;;;;;;;;27.50;25.25;;;;;;;;5033981;28;45478;-70
2021/11/20 14:00:05;;;;;;;;;30.00;27.00;;;;;;;;5033391;28;45472;-69
2021/11/20 14:02:30;;;;;;;;;28.25;24.50;;;;;;;;5031458;28;46715;-68
2021/11/20 14:05:01;;;;;;;;;35.75;30.50;;;;;;;;5032564;28;45258;-69
2021/11/20 14:07:33;;;;;;;;;24.25;20.25;;;;;;;;5013958;28;45533;-68
2021/11/20 14:10:01;;;;;;;;;21.75;21.75;;;;;;;;5033053;28;45390;-69
2021/11/20 14:12:35;;;;;;;;;22.00;20.75;;;;;;;;5032823;28;47178;-69
2021/11/20 14:15:05;;;;;;;;;24.00;21.00;;;;;;;;5014811;28;45471;-68
2021/11/20 14:17:33;;;;;;;;;28.50;23.50;;;;;;;;5032472;28;45441;-68
2021/11/20 14:20:06;;;;;;;;;28.50;26.25;;;;;;;;5032657;28;45550;-67
2021/11/20 14:22:35;;;;;;;;;28.50;26.00;;;;;;;;5031494;28;47216;-68
2021/11/20 14:25:00;;;;;;;;;31.00;26.50;;;;;;;;5032449;28;45465;-67
2021/11/20 14:27:26;;;;;;;;;34.00;27.50;;;;;;;;5032293;28;45341;-70
2021/11/20 14:29:52;;;;;;;;;33.25;31.50;;;;;;;;5032293;28;45404;-68
2021/11/20 14:32:19;;;;;;;;;53.25;42.25;;;;;;;;5031805;28;46315;-68
2021/11/20 14:34:45;;;;;;;;;38.75;34.75;;;;;;;;5031713;28;45311;-68